sensor_id;sensor_type;location;lat;lon;timestamp;temperature;humidity
9237;DHT22;24579;42.810;23.214;2022-09-17T00:00:20;16.80;99.90
9237;DHT22;24579;42.810;23.214;2022-09-17T00:02:49;16.70;99.90
9237;DHT22;24579;42.810;23.214;2022-09-17T00:05:20;16.70;99.90
9237;DHT22;24579;42.810;23.214;2022-09-17T00:07:47;16.80;99.90
9237;DHT22;24579;42.810;23.214;2022-09-17T00:10:14;16.90;99.90
9237;DHT22;24579;42.810;23.214;2022-09-17T00:12:41;17.00;99.90
9237;DHT22;24579;42.810;23.214;2022-09-17T00:15:10;17.00;99.90
9237;DHT22;24579;42.810;23.214;2022-09-17T00:17:37;17.00;99.90
9237;DHT22;24579;42.810;23.214;2022-09-17T00:20:05;17.10;99.90
9237;DHT22;24579;42.810;23.214;2022-09-17T00:22:34;17.10;99.90
9237;DHT22;24579;42.810;23.214;2022-09-17T00:25:01;17.10;99.90
9237;DHT22;24579;42.810;23.214;2022-09-17T00:27:28;17.00;99.90
9237;DHT22;24579;42.810;23.214;2022-09-17T00:29:55;16.80;99.90
9237;DHT22;24579;42.810;23.214;2022-09-17T00:32:24;16.80;99.90
9237;DHT22;24579;42.810;23.214;2022-09-17T00:34:52;16.70;99.90
9237;DHT22;24579;42.810;23.214;2022-09-17T00:37:19;16.70;99.90
9237;DHT22;24579;42.810;23.214;2022-09-17T00:39:45;16.80;99.90
9237;DHT22;24579;42.810;23.214;2022-09-17T00:42:14;16.80;99.90
9237;DHT22;24579;42.810;23.214;2022-09-17T00:44:47;16.80;99.90
9237;DHT22;24579;42.810;23.214;2022-09-17T00:47:22;16.80;99.90
9237;DHT22;24579;42.810;23.214;2022-09-17T00:49:54;16.70;99.90
9237;DHT22;24579;42.810;23.214;2022-09-17T00:52:26;16.60;99.90
9237;DHT22;24579;42.810;23.214;2022-09-17T00:54:59;16.70;99.90
9237;DHT22;24579;42.810;23.214;2022-09-17T00:57:27;16.80;99.90
9237;DHT22;24579;42.810;23.214;2022-09-17T00:59:55;16.50;99.90
9237;DHT22;24579;42.810;23.214;2022-09-17T01:02:22;16.60;99.90
9237;DHT22;24579;42.810;23.214;2022-09-17T01:04:50;16.50;99.90
9237;DHT22;24579;42.810;23.214;2022-09-17T01:07:52;16.70;99.90
9237;DHT22;24579;42.810;23.214;2022-09-17T01:10:30;16.80;99.90
9237;DHT22;24579;42.810;23.214;2022-09-17T01:13:08;16.40;99.90
9237;DHT22;24579;42.810;23.214;2022-09-17T01:15:41;16.60;99.90
9237;DHT22;24579;42.810;23.214;2022-09-17T01:18:28;16.70;99.90
9237;DHT22;24579;42.810;23.214;2022-09-17T01:21:22;16.70;99.90
9237;DHT22;24579;42.810;23.214;2022-09-17T01:30:38;16.70;99.90
9237;DHT22;24579;42.810;23.214;2022-09-17T01:33:14;16.50;99.90
9237;DHT22;24579;42.810;23.214;2022-09-17T01:35:48;16.40;99.90
9237;DHT22;24579;42.810;23.214;2022-09-17T01:38:24;16.60;99.90
9237;DHT22;24579;42.810;23.214;2022-09-17T01:40:55;16.60;99.90
9237;DHT22;24579;42.810;23.214;2022-09-17T01:43:32;16.70;99.90
9237;DHT22;24579;42.810;23.214;2022-09-17T01:46:06;16.80;99.90
9237;DHT22;24579;42.810;23.214;2022-09-17T01:48:39;16.90;99.90
9237;DHT22;24579;42.810;23.214;2022-09-17T01:51:09;16.80;99.90
9237;DHT22;24579;42.810;23.214;2022-09-17T01:53:41;16.70;99.90
9237;DHT22;24579;42.810;23.214;2022-09-17T01:56:13;16.70;99.90
9237;DHT22;24579;42.810;23.214;2022-09-17T01:58:46;16.70;99.90
9237;DHT22;24579;42.810;23.214;2022-09-17T02:01:17;16.80;99.90
9237;DHT22;24579;42.810;23.214;2022-09-17T02:03:48;16.80;99.90
9237;DHT22;24579;42.810;23.214;2022-09-17T02:06:22;16.80;99.90
9237;DHT22;24579;42.810;23.214;2022-09-17T02:08:53;16.80;99.90
9237;DHT22;24579;42.810;23.214;2022-09-17T02:11:22;16.70;99.90
9237;DHT22;24579;42.810;23.214;2022-09-17T02:13:51;16.70;99.90
9237;DHT22;24579;42.810;23.214;2022-09-17T02:16:24;16.50;99.90
9237;DHT22;24579;42.810;23.214;2022-09-17T02:18:55;16.40;99.90
9237;DHT22;24579;42.810;23.214;2022-09-17T02:21:29;16.30;99.90
9237;DHT22;24579;42.810;23.214;2022-09-17T02:24:03;16.20;99.90
9237;DHT22;24579;42.810;23.214;2022-09-17T02:26:34;16.10;99.90
9237;DHT22;24579;42.810;23.214;2022-09-17T02:29:07;16.20;99.90
9237;DHT22;24579;42.810;23.214;2022-09-17T02:31:36;16.10;99.90
9237;DHT22;24579;42.810;23.214;2022-09-17T02:34:07;16.20;99.90
9237;DHT22;24579;42.810;23.214;2022-09-17T02:36:35;16.40;99.90
9237;DHT22;24579;42.810;23.214;2022-09-17T02:39:03;16.30;99.90
9237;DHT22;24579;42.810;23.214;2022-09-17T02:41:38;16.40;99.90
9237;DHT22;24579;42.810;23.214;2022-09-17T02:44:12;16.40;99.90
9237;DHT22;24579;42.810;23.214;2022-09-17T02:47:00;16.50;99.90
9237;DHT22;24579;42.810;23.214;2022-09-17T02:49:42;16.20;99.90
9237;DHT22;24579;42.810;23.214;2022-09-17T02:52:20;16.30;99.90
9237;DHT22;24579;42.810;23.214;2022-09-17T02:54:58;16.40;99.90
9237;DHT22;24579;42.810;23.214;2022-09-17T02:57:31;16.30;99.90
9237;DHT22;24579;42.810;23.214;2022-09-17T03:00:05;16.50;99.90
9237;DHT22;24579;42.810;23.214;2022-09-17T03:02:38;16.40;99.90
9237;DHT22;24579;42.810;23.214;2022-09-17T03:05:09;16.50;99.90
9237;DHT22;24579;42.810;23.214;2022-09-17T03:07:36;16.30;99.90
9237;DHT22;24579;42.810;23.214;2022-09-17T03:10:04;16.40;99.90
9237;DHT22;24579;42.810;23.214;2022-09-17T03:12:31;16.50;99.90
9237;DHT22;24579;42.810;23.214;2022-09-17T03:14:58;16.40;99.90
9237;DHT22;24579;42.810;23.214;2022-09-17T03:17:25;16.30;99.90
9237;DHT22;24579;42.810;23.214;2022-09-17T03:19:54;16.10;99.90
9237;DHT22;24579;42.810;23.214;2022-09-17T03:22:21;16.00;99.90
9237;DHT22;24579;42.810;23.214;2022-09-17T03:24:48;16.20;99.90
9237;DHT22;24579;42.810;23.214;2022-09-17T03:27:14;16.40;99.90
9237;DHT22;24579;42.810;23.214;2022-09-17T03:29:41;16.30;99.90
9237;DHT22;24579;42.810;23.214;2022-09-17T03:32:08;16.10;99.90
9237;DHT22;24579;42.810;23.214;2022-09-17T03:34:36;16.10;99.90
9237;DHT22;24579;42.810;23.214;2022-09-17T03:37:04;16.20;99.90
9237;DHT22;24579;42.810;23.214;2022-09-17T03:39:31;16.40;99.90
9237;DHT22;24579;42.810;23.214;2022-09-17T03:41:58;16.50;99.90
9237;DHT22;24579;42.810;23.214;2022-09-17T03:44:25;16.60;99.90
9237;DHT22;24579;42.810;23.214;2022-09-17T03:46:52;16.60;99.90
9237;DHT22;24579;42.810;23.214;2022-09-17T03:49:19;16.40;99.90
9237;DHT22;24579;42.810;23.214;2022-09-17T03:51:48;16.50;99.90
9237;DHT22;24579;42.810;23.214;2022-09-17T03:54:16;16.40;99.90
9237;DHT22;24579;42.810;23.214;2022-09-17T03:56:43;16.40;99.90
9237;DHT22;24579;42.810;23.214;2022-09-17T03:59:10;16.30;99.90
9237;DHT22;24579;42.810;23.214;2022-09-17T04:01:37;16.20;99.90
9237;DHT22;24579;42.810;23.214;2022-09-17T04:04:04;16.30;99.90
9237;DHT22;24579;42.810;23.214;2022-09-17T04:06:32;16.40;99.90
9237;DHT22;24579;42.810;23.214;2022-09-17T04:08:59;16.70;99.90
9237;DHT22;24579;42.810;23.214;2022-09-17T04:11:30;16.80;99.90
9237;DHT22;24579;42.810;23.214;2022-09-17T04:13:57;16.90;99.90
9237;DHT22;24579;42.810;23.214;2022-09-17T04:16:24;16.90;99.90
9237;DHT22;24579;42.810;23.214;2022-09-17T04:18:51;17.10;99.90
9237;DHT22;24579;42.810;23.214;2022-09-17T04:21:18;17.40;99.90
9237;DHT22;24579;42.810;23.214;2022-09-17T04:23:45;17.70;99.90
9237;DHT22;24579;42.810;23.214;2022-09-17T04:26:12;17.70;99.90
9237;DHT22;24579;42.810;23.214;2022-09-17T04:28:40;17.60;99.90
9237;DHT22;24579;42.810;23.214;2022-09-17T04:31:07;17.30;99.90
9237;DHT22;24579;42.810;23.214;2022-09-17T04:33:34;17.20;99.90
9237;DHT22;24579;42.810;23.214;2022-09-17T04:36:02;17.10;99.90
9237;DHT22;24579;42.810;23.214;2022-09-17T04:38:29;17.20;99.90
9237;DHT22;24579;42.810;23.214;2022-09-17T04:40:58;17.10;99.90
9237;DHT22;24579;42.810;23.214;2022-09-17T04:43:25;17.00;99.90
9237;DHT22;24579;42.810;23.214;2022-09-17T04:45:53;17.00;99.90
9237;DHT22;24579;42.810;23.214;2022-09-17T04:48:20;17.00;99.90
9237;DHT22;24579;42.810;23.214;2022-09-17T04:50:47;17.00;99.90
9237;DHT22;24579;42.810;23.214;2022-09-17T04:53:14;17.20;99.90
9237;DHT22;24579;42.810;23.214;2022-09-17T04:55:41;17.20;99.90
9237;DHT22;24579;42.810;23.214;2022-09-17T04:58:08;17.10;99.90
9237;DHT22;24579;42.810;23.214;2022-09-17T05:00:36;17.10;99.90
9237;DHT22;24579;42.810;23.214;2022-09-17T05:03:04;17.10;99.90
9237;DHT22;24579;42.810;23.214;2022-09-17T05:05:31;17.10;99.90
9237;DHT22;24579;42.810;23.214;2022-09-17T05:07:58;17.10;99.90
9237;DHT22;24579;42.810;23.214;2022-09-17T05:10:25;17.10;99.90
9237;DHT22;24579;42.810;23.214;2022-09-17T05:12:53;17.20;99.90
9237;DHT22;24579;42.810;23.214;2022-09-17T05:15:22;17.30;99.90
9237;DHT22;24579;42.810;23.214;2022-09-17T05:17:49;17.30;99.90
9237;DHT22;24579;42.810;23.214;2022-09-17T05:20:18;17.30;99.90
9237;DHT22;24579;42.810;23.214;2022-09-17T05:22:47;17.20;99.90
9237;DHT22;24579;42.810;23.214;2022-09-17T05:25:15;17.10;99.90
9237;DHT22;24579;42.810;23.214;2022-09-17T05:27:42;17.20;99.90
9237;DHT22;24579;42.810;23.214;2022-09-17T05:30:10;17.20;99.90
9237;DHT22;24579;42.810;23.214;2022-09-17T05:32:38;17.20;99.90
9237;DHT22;24579;42.810;23.214;2022-09-17T05:35:06;17.30;99.90
9237;DHT22;24579;42.810;23.214;2022-09-17T05:37:35;17.20;99.90
9237;DHT22;24579;42.810;23.214;2022-09-17T05:40:03;17.20;99.90
9237;DHT22;24579;42.810;23.214;2022-09-17T05:42:31;17.20;99.90
9237;DHT22;24579;42.810;23.214;2022-09-17T05:44:58;17.30;99.90
9237;DHT22;24579;42.810;23.214;2022-09-17T05:47:25;17.30;99.90
9237;DHT22;24579;42.810;23.214;2022-09-17T05:49:52;17.40;99.90
9237;DHT22;24579;42.810;23.214;2022-09-17T05:52:19;17.20;99.90
9237;DHT22;24579;42.810;23.214;2022-09-17T05:54:48;17.20;99.90
9237;DHT22;24579;42.810;23.214;2022-09-17T05:57:15;17.30;99.90
9237;DHT22;24579;42.810;23.214;2022-09-17T05:59:42;17.40;99.90
9237;DHT22;24579;42.810;23.214;2022-09-17T06:02:12;17.20;99.90
9237;DHT22;24579;42.810;23.214;2022-09-17T06:04:39;17.20;99.90
9237;DHT22;24579;42.810;23.214;2022-09-17T06:07:06;17.10;99.90
9237;DHT22;24579;42.810;23.214;2022-09-17T06:09:34;17.10;99.90
9237;DHT22;24579;42.810;23.214;2022-09-17T06:12:04;17.30;99.90
9237;DHT22;24579;42.810;23.214;2022-09-17T06:14:31;17.40;99.90
9237;DHT22;24579;42.810;23.214;2022-09-17T06:16:58;17.30;99.90
9237;DHT22;24579;42.810;23.214;2022-09-17T06:19:26;17.20;99.90
9237;DHT22;24579;42.810;23.214;2022-09-17T06:21:53;17.20;99.90
9237;DHT22;24579;42.810;23.214;2022-09-17T06:24:20;17.20;99.90
9237;DHT22;24579;42.810;23.214;2022-09-17T06:26:47;17.40;99.90
9237;DHT22;24579;42.810;23.214;2022-09-17T06:29:16;17.40;99.90
9237;DHT22;24579;42.810;23.214;2022-09-17T06:31:44;17.30;99.90
9237;DHT22;24579;42.810;23.214;2022-09-17T06:34:11;17.40;99.90
9237;DHT22;24579;42.810;23.214;2022-09-17T06:36:38;17.40;99.90
9237;DHT22;24579;42.810;23.214;2022-09-17T06:39:05;17.40;99.90
9237;DHT22;24579;42.810;23.214;2022-09-17T06:41:33;17.40;99.90
9237;DHT22;24579;42.810;23.214;2022-09-17T06:44:01;17.50;99.90
9237;DHT22;24579;42.810;23.214;2022-09-17T06:46:30;17.50;99.90
9237;DHT22;24579;42.810;23.214;2022-09-17T06:48:57;17.60;99.90
9237;DHT22;24579;42.810;23.214;2022-09-17T06:51:24;17.50;99.90
9237;DHT22;24579;42.810;23.214;2022-09-17T06:53:51;17.50;99.90
9237;DHT22;24579;42.810;23.214;2022-09-17T06:56:18;17.60;99.90
9237;DHT22;24579;42.810;23.214;2022-09-17T06:58:45;17.60;99.90
9237;DHT22;24579;42.810;23.214;2022-09-17T07:01:12;17.70;99.90
9237;DHT22;24579;42.810;23.214;2022-09-17T07:03:41;17.60;99.90
9237;DHT22;24579;42.810;23.214;2022-09-17T07:06:09;17.60;99.90
9237;DHT22;24579;42.810;23.214;2022-09-17T07:08:37;17.50;99.90
9237;DHT22;24579;42.810;23.214;2022-09-17T07:11:05;17.60;99.90
9237;DHT22;24579;42.810;23.214;2022-09-17T07:13:33;17.70;99.90
9237;DHT22;24579;42.810;23.214;2022-09-17T07:16:01;17.70;99.90
9237;DHT22;24579;42.810;23.214;2022-09-17T07:18:29;17.80;99.90
9237;DHT22;24579;42.810;23.214;2022-09-17T07:20:58;18.10;99.90
9237;DHT22;24579;42.810;23.214;2022-09-17T07:23:27;18.10;99.90
9237;DHT22;24579;42.810;23.214;2022-09-17T07:25:55;18.50;99.90
9237;DHT22;24579;42.810;23.214;2022-09-17T07:28:24;18.70;99.90
9237;DHT22;24579;42.810;23.214;2022-09-17T07:30:52;18.90;99.90
9237;DHT22;24579;42.810;23.214;2022-09-17T07:33:21;19.10;99.90
9237;DHT22;24579;42.810;23.214;2022-09-17T07:35:52;19.00;99.90
9237;DHT22;24579;42.810;23.214;2022-09-17T07:38:21;19.20;99.90
9237;DHT22;24579;42.810;23.214;2022-09-17T07:40:56;19.40;99.90
9237;DHT22;24579;42.810;23.214;2022-09-17T07:43:23;19.40;99.90
9237;DHT22;24579;42.810;23.214;2022-09-17T07:45:51;19.60;99.90
9237;DHT22;24579;42.810;23.214;2022-09-17T07:48:18;19.80;99.90
9237;DHT22;24579;42.810;23.214;2022-09-17T07:50:45;19.80;99.90
9237;DHT22;24579;42.810;23.214;2022-09-17T07:53:12;19.80;99.90
9237;DHT22;24579;42.810;23.214;2022-09-17T07:55:41;19.70;99.90
9237;DHT22;24579;42.810;23.214;2022-09-17T07:58:08;19.60;99.90
9237;DHT22;24579;42.810;23.214;2022-09-17T08:00:35;19.70;99.90
9237;DHT22;24579;42.810;23.214;2022-09-17T08:03:02;19.70;99.90
9237;DHT22;24579;42.810;23.214;2022-09-17T08:05:31;19.80;99.90
9237;DHT22;24579;42.810;23.214;2022-09-17T08:07:58;19.80;99.90
9237;DHT22;24579;42.810;23.214;2022-09-17T08:10:25;20.00;99.90
9237;DHT22;24579;42.810;23.214;2022-09-17T08:12:56;20.10;99.90
9237;DHT22;24579;42.810;23.214;2022-09-17T08:15:24;20.20;99.90
9237;DHT22;24579;42.810;23.214;2022-09-17T08:17:51;20.40;99.90
9237;DHT22;24579;42.810;23.214;2022-09-17T08:20:18;20.50;99.90
9237;DHT22;24579;42.810;23.214;2022-09-17T08:22:45;20.60;99.90
9237;DHT22;24579;42.810;23.214;2022-09-17T08:25:12;20.50;99.90
9237;DHT22;24579;42.810;23.214;2022-09-17T08:27:39;20.40;99.90
9237;DHT22;24579;42.810;23.214;2022-09-17T08:30:08;20.50;99.90
9237;DHT22;24579;42.810;23.214;2022-09-17T08:32:35;20.60;99.90
9237;DHT22;24579;42.810;23.214;2022-09-17T08:35:03;20.40;99.90
9237;DHT22;24579;42.810;23.214;2022-09-17T08:37:30;20.60;99.90
9237;DHT22;24579;42.810;23.214;2022-09-17T08:39:56;20.50;99.90
9237;DHT22;24579;42.810;23.214;2022-09-17T08:42:26;20.50;99.90
9237;DHT22;24579;42.810;23.214;2022-09-17T08:44:56;20.30;99.90
9237;DHT22;24579;42.810;23.214;2022-09-17T08:47:28;20.20;99.90
9237;DHT22;24579;42.810;23.214;2022-09-17T08:49:58;20.30;99.90
9237;DHT22;24579;42.810;23.214;2022-09-17T08:55:36;20.40;99.90
9237;DHT22;24579;42.810;23.214;2022-09-17T08:58:37;20.30;99.90
9237;DHT22;24579;42.810;23.214;2022-09-17T09:01:12;20.20;99.90
9237;DHT22;24579;42.810;23.214;2022-09-17T09:06:34;20.20;99.90
9237;DHT22;24579;42.810;23.214;2022-09-17T09:09:05;19.90;99.90
9237;DHT22;24579;42.810;23.214;2022-09-17T09:11:37;19.80;99.90
9237;DHT22;24579;42.810;23.214;2022-09-17T09:14:11;19.70;99.90
9237;DHT22;24579;42.810;23.214;2022-09-17T09:16:42;19.60;99.90
9237;DHT22;24579;42.810;23.214;2022-09-17T09:19:19;19.50;99.90
9237;DHT22;24579;42.810;23.214;2022-09-17T09:21:59;19.40;99.90
9237;DHT22;24579;42.810;23.214;2022-09-17T09:24:36;19.20;99.90
9237;DHT22;24579;42.810;23.214;2022-09-17T09:27:14;19.20;99.90
9237;DHT22;24579;42.810;23.214;2022-09-17T09:29:47;19.10;99.90
9237;DHT22;24579;42.810;23.214;2022-09-17T09:32:31;19.10;99.90
9237;DHT22;24579;42.810;23.214;2022-09-17T09:35:14;19.00;99.90
9237;DHT22;24579;42.810;23.214;2022-09-17T09:37:45;18.90;99.90
9237;DHT22;24579;42.810;23.214;2022-09-17T09:40:24;18.80;99.90
9237;DHT22;24579;42.810;23.214;2022-09-17T09:42:58;18.70;99.90
9237;DHT22;24579;42.810;23.214;2022-09-17T09:45:37;18.70;99.90
9237;DHT22;24579;42.810;23.214;2022-09-17T09:48:11;18.70;99.90
9237;DHT22;24579;42.810;23.214;2022-09-17T09:50:48;18.60;99.90
9237;DHT22;24579;42.810;23.214;2022-09-17T09:53:24;18.50;99.90
9237;DHT22;24579;42.810;23.214;2022-09-17T09:56:08;18.50;99.90
9237;DHT22;24579;42.810;23.214;2022-09-17T09:58:38;18.70;99.90
9237;DHT22;24579;42.810;23.214;2022-09-17T10:01:12;18.90;99.90
9237;DHT22;24579;42.810;23.214;2022-09-17T10:03:40;19.00;99.90
9237;DHT22;24579;42.810;23.214;2022-09-17T10:06:10;19.00;99.90
9237;DHT22;24579;42.810;23.214;2022-09-17T10:08:40;19.00;99.90
9237;DHT22;24579;42.810;23.214;2022-09-17T10:11:19;19.00;99.90
9237;DHT22;24579;42.810;23.214;2022-09-17T10:13:47;18.90;99.90
9237;DHT22;24579;42.810;23.214;2022-09-17T10:16:18;18.80;99.90
9237;DHT22;24579;42.810;23.214;2022-09-17T10:18:46;18.70;99.90
9237;DHT22;24579;42.810;23.214;2022-09-17T10:21:30;18.80;99.90
9237;DHT22;24579;42.810;23.214;2022-09-17T10:23:58;18.80;99.90
9237;DHT22;24579;42.810;23.214;2022-09-17T10:26:27;18.90;99.90
9237;DHT22;24579;42.810;23.214;2022-09-17T10:28:58;18.80;99.90
9237;DHT22;24579;42.810;23.214;2022-09-17T10:31:25;18.80;99.90
9237;DHT22;24579;42.810;23.214;2022-09-17T10:33:56;18.90;99.90
9237;DHT22;24579;42.810;23.214;2022-09-17T10:36:44;18.90;99.90
9237;DHT22;24579;42.810;23.214;2022-09-17T10:42:02;18.80;99.90
9237;DHT22;24579;42.810;23.214;2022-09-17T10:44:30;19.00;99.90
9237;DHT22;24579;42.810;23.214;2022-09-17T10:47:03;19.10;99.90
9237;DHT22;24579;42.810;23.214;2022-09-17T10:49:36;19.40;99.90
9237;DHT22;24579;42.810;23.214;2022-09-17T10:52:11;19.70;99.90
9237;DHT22;24579;42.810;23.214;2022-09-17T10:55:03;19.80;99.90
9237;DHT22;24579;42.810;23.214;2022-09-17T11:00:43;20.50;99.90
9237;DHT22;24579;42.810;23.214;2022-09-17T11:03:52;20.80;99.90
9237;DHT22;24579;42.810;23.214;2022-09-17T11:06:49;21.00;99.90
9237;DHT22;24579;42.810;23.214;2022-09-17T11:09:31;21.10;99.90
9237;DHT22;24579;42.810;23.214;2022-09-17T11:12:16;21.10;99.90
9237;DHT22;24579;42.810;23.214;2022-09-17T11:14:49;20.90;99.90
9237;DHT22;24579;42.810;23.214;2022-09-17T11:17:38;21.00;99.90
9237;DHT22;24579;42.810;23.214;2022-09-17T11:20:19;21.30;99.90
9237;DHT22;24579;42.810;23.214;2022-09-17T11:22:55;21.50;99.90
9237;DHT22;24579;42.810;23.214;2022-09-17T11:25:37;22.00;99.90
9237;DHT22;24579;42.810;23.214;2022-09-17T11:28:16;21.80;99.90
9237;DHT22;24579;42.810;23.214;2022-09-17T11:30:55;21.30;99.90
9237;DHT22;24579;42.810;23.214;2022-09-17T11:33:44;21.10;99.90
9237;DHT22;24579;42.810;23.214;2022-09-17T11:36:16;20.80;99.90
9237;DHT22;24579;42.810;23.214;2022-09-17T11:38:48;20.70;99.90
9237;DHT22;24579;42.810;23.214;2022-09-17T11:41:19;20.60;99.90
9237;DHT22;24579;42.810;23.214;2022-09-17T11:44:05;20.40;99.90
9237;DHT22;24579;42.810;23.214;2022-09-17T11:46:39;20.30;99.90
9237;DHT22;24579;42.810;23.214;2022-09-17T11:49:11;20.50;99.90
9237;DHT22;24579;42.810;23.214;2022-09-17T11:51:45;20.50;99.90
9237;DHT22;24579;42.810;23.214;2022-09-17T11:54:19;20.60;99.90
9237;DHT22;24579;42.810;23.214;2022-09-17T11:56:52;20.60;99.90
9237;DHT22;24579;42.810;23.214;2022-09-17T11:59:25;20.60;99.90
9237;DHT22;24579;42.810;23.214;2022-09-17T12:01:59;20.70;99.90
9237;DHT22;24579;42.810;23.214;2022-09-17T12:04:41;20.80;99.90
9237;DHT22;24579;42.810;23.214;2022-09-17T12:07:28;20.70;99.90
9237;DHT22;24579;42.810;23.214;2022-09-17T12:10:02;20.60;99.90
9237;DHT22;24579;42.810;23.214;2022-09-17T12:12:31;20.40;99.90
9237;DHT22;24579;42.810;23.214;2022-09-17T12:15:02;20.50;99.90
9237;DHT22;24579;42.810;23.214;2022-09-17T12:17:35;20.50;99.90
9237;DHT22;24579;42.810;23.214;2022-09-17T12:20:07;20.50;99.90
9237;DHT22;24579;42.810;23.214;2022-09-17T12:22:38;20.40;99.90
9237;DHT22;24579;42.810;23.214;2022-09-17T12:25:11;20.40;99.90
9237;DHT22;24579;42.810;23.214;2022-09-17T12:27:45;20.30;99.90
9237;DHT22;24579;42.810;23.214;2022-09-17T12:30:17;20.30;99.90
9237;DHT22;24579;42.810;23.214;2022-09-17T12:33:02;20.10;99.90
9237;DHT22;24579;42.810;23.214;2022-09-17T12:36:05;20.10;99.90
9237;DHT22;24579;42.810;23.214;2022-09-17T12:38:51;20.10;99.90
9237;DHT22;24579;42.810;23.214;2022-09-17T12:41:28;19.90;99.90
9237;DHT22;24579;42.810;23.214;2022-09-17T12:44:15;19.90;99.90
9237;DHT22;24579;42.810;23.214;2022-09-17T12:46:58;19.90;99.90
9237;DHT22;24579;42.810;23.214;2022-09-17T12:52:22;19.90;99.90
9237;DHT22;24579;42.810;23.214;2022-09-17T12:55:16;19.70;99.90
9237;DHT22;24579;42.810;23.214;2022-09-17T12:57:51;19.60;99.90
9237;DHT22;24579;42.810;23.214;2022-09-17T13:00:23;19.70;99.90
9237;DHT22;24579;42.810;23.214;2022-09-17T13:03:05;19.70;99.90
9237;DHT22;24579;42.810;23.214;2022-09-17T13:06:01;19.60;99.90
9237;DHT22;24579;42.810;23.214;2022-09-17T13:08:55;19.60;99.90
9237;DHT22;24579;42.810;23.214;2022-09-17T13:11:43;19.50;99.90
9237;DHT22;24579;42.810;23.214;2022-09-17T13:14:18;19.40;99.90
9237;DHT22;24579;42.810;23.214;2022-09-17T13:16:55;19.60;99.90
9237;DHT22;24579;42.810;23.214;2022-09-17T13:19:31;19.60;99.90
9237;DHT22;24579;42.810;23.214;2022-09-17T13:22:04;19.70;99.90
9237;DHT22;24579;42.810;23.214;2022-09-17T13:24:35;19.70;99.90
9237;DHT22;24579;42.810;23.214;2022-09-17T13:27:04;19.60;99.90
9237;DHT22;24579;42.810;23.214;2022-09-17T13:29:57;19.70;99.90
9237;DHT22;24579;42.810;23.214;2022-09-17T13:32:50;19.70;99.90
9237;DHT22;24579;42.810;23.214;2022-09-17T13:35:48;19.70;99.90
9237;DHT22;24579;42.810;23.214;2022-09-17T13:38:17;19.70;99.90
9237;DHT22;24579;42.810;23.214;2022-09-17T13:40:45;19.60;99.90
9237;DHT22;24579;42.810;23.214;2022-09-17T13:43:15;19.60;99.90
9237;DHT22;24579;42.810;23.214;2022-09-17T13:46:05;19.60;99.90
9237;DHT22;24579;42.810;23.214;2022-09-17T13:48:47;19.60;99.90
9237;DHT22;24579;42.810;23.214;2022-09-17T13:51:42;19.60;99.90
9237;DHT22;24579;42.810;23.214;2022-09-17T13:54:11;19.50;99.90
9237;DHT22;24579;42.810;23.214;2022-09-17T13:56:41;19.40;99.90
9237;DHT22;24579;42.810;23.214;2022-09-17T13:59:12;19.50;99.90
9237;DHT22;24579;42.810;23.214;2022-09-17T14:05:28;19.40;99.90
9237;DHT22;24579;42.810;23.214;2022-09-17T14:08:22;19.30;99.90
9237;DHT22;24579;42.810;23.214;2022-09-17T14:10:52;19.20;99.90
9237;DHT22;24579;42.810;23.214;2022-09-17T14:13:37;19.20;99.90
9237;DHT22;24579;42.810;23.214;2022-09-17T14:16:32;19.30;99.90
9237;DHT22;24579;42.810;23.214;2022-09-17T14:19:03;19.20;99.90
9237;DHT22;24579;42.810;23.214;2022-09-17T14:21:55;19.10;99.90
9237;DHT22;24579;42.810;23.214;2022-09-17T14:24:26;19.10;99.90
9237;DHT22;24579;42.810;23.214;2022-09-17T14:27:24;19.10;99.90
9237;DHT22;24579;42.810;23.214;2022-09-17T14:30:02;19.00;99.90
9237;DHT22;24579;42.810;23.214;2022-09-17T14:32:34;19.00;99.90
9237;DHT22;24579;42.810;23.214;2022-09-17T14:35:11;19.00;99.90
9237;DHT22;24579;42.810;23.214;2022-09-17T14:37:41;18.90;99.90
9237;DHT22;24579;42.810;23.214;2022-09-17T14:40:10;19.00;99.90
9237;DHT22;24579;42.810;23.214;2022-09-17T14:42:40;19.10;99.90
9237;DHT22;24579;42.810;23.214;2022-09-17T14:45:14;19.10;99.90
9237;DHT22;24579;42.810;23.214;2022-09-17T14:47:42;19.00;99.90
9237;DHT22;24579;42.810;23.214;2022-09-17T14:50:19;19.00;99.90
9237;DHT22;24579;42.810;23.214;2022-09-17T14:52:48;18.90;99.90
9237;DHT22;24579;42.810;23.214;2022-09-17T14:55:18;18.90;99.90
9237;DHT22;24579;42.810;23.214;2022-09-17T14:57:48;18.90;99.90
9237;DHT22;24579;42.810;23.214;2022-09-17T15:00:19;18.90;99.90
9237;DHT22;24579;42.810;23.214;2022-09-17T15:02:51;18.90;99.90
9237;DHT22;24579;42.810;23.214;2022-09-17T15:05:22;18.90;99.90
9237;DHT22;24579;42.810;23.214;2022-09-17T15:08:04;18.90;99.90
9237;DHT22;24579;42.810;23.214;2022-09-17T15:10:34;18.90;99.90
9237;DHT22;24579;42.810;23.214;2022-09-17T15:13:02;18.90;99.90
9237;DHT22;24579;42.810;23.214;2022-09-17T15:15:29;19.00;99.90
9237;DHT22;24579;42.810;23.214;2022-09-17T15:17:57;19.00;99.90
9237;DHT22;24579;42.810;23.214;2022-09-17T15:20:28;18.80;99.90
9237;DHT22;24579;42.810;23.214;2022-09-17T15:23:06;18.80;99.90
9237;DHT22;24579;42.810;23.214;2022-09-17T15:25:35;18.80;99.90
9237;DHT22;24579;42.810;23.214;2022-09-17T15:28:11;18.90;99.90
9237;DHT22;24579;42.810;23.214;2022-09-17T15:30:40;18.80;99.90
9237;DHT22;24579;42.810;23.214;2022-09-17T15:33:09;18.80;99.90
9237;DHT22;24579;42.810;23.214;2022-09-17T15:35:38;18.90;99.90
9237;DHT22;24579;42.810;23.214;2022-09-17T15:38:20;18.90;99.90
9237;DHT22;24579;42.810;23.214;2022-09-17T15:40:47;18.60;99.90
9237;DHT22;24579;42.810;23.214;2022-09-17T15:43:17;18.50;99.90
9237;DHT22;24579;42.810;23.214;2022-09-17T15:45:47;18.50;99.90
9237;DHT22;24579;42.810;23.214;2022-09-17T15:48:27;18.60;99.90
9237;DHT22;24579;42.810;23.214;2022-09-17T15:51:00;18.50;99.90
9237;DHT22;24579;42.810;23.214;2022-09-17T15:53:30;18.60;99.90
9237;DHT22;24579;42.810;23.214;2022-09-17T15:56:00;18.70;99.90
9237;DHT22;24579;42.810;23.214;2022-09-17T15:58:30;18.70;99.90
9237;DHT22;24579;42.810;23.214;2022-09-17T16:04:27;18.90;99.90
9237;DHT22;24579;42.810;23.214;2022-09-17T16:06:59;18.90;99.90
9237;DHT22;24579;42.810;23.214;2022-09-17T16:09:43;18.90;99.90
9237;DHT22;24579;42.810;23.214;2022-09-17T16:12:13;18.90;99.90
9237;DHT22;24579;42.810;23.214;2022-09-17T16:14:48;19.00;99.90
9237;DHT22;24579;42.810;23.214;2022-09-17T16:17:40;19.00;99.90
9237;DHT22;24579;42.810;23.214;2022-09-17T16:20:13;18.90;99.90
9237;DHT22;24579;42.810;23.214;2022-09-17T16:22:40;18.90;99.90
9237;DHT22;24579;42.810;23.214;2022-09-17T16:25:09;19.00;99.90
9237;DHT22;24579;42.810;23.214;2022-09-17T16:27:44;19.10;99.90
9237;DHT22;24579;42.810;23.214;2022-09-17T16:30:14;19.20;99.90